Time;durP1;ratioP1;P1;durP2;ratioP2;P2;SDS_P1;SDS_P2;PMS_P1;PMS_P2;Temp;Humidity;BMP_temperature;BMP_pressure;BME280_temperature;BME280_humidity;BME280_pressure;Samples;Min_cycle;Max_cycle;Signal;HPM_P1;HPM_P2
2023/03/19 00:00:18;;;;;;;49.90;18.90;;;;;;;5.06;58.45;100279.91;106598;1276;26012;-58
2023/03/19 00:03:09;;;;;;;45.70;20.60;;;;;;;5.03;58.59;100284.17;106425;1269;24457;-58
2023/03/19 00:05:40;;;;;;;49.80;22.30;;;;;;;5.00;58.59;100290.59;106475;1276;25447;-59
2023/03/19 00:08:11;;;;;;;49.60;20.80;;;;;;;4.98;58.77;100286.02;106704;1273;22651;-56
2023/03/19 00:10:42;;;;;;;48.90;23.00;;;;;;;4.95;58.92;100285.36;106458;1271;24229;-56
2023/03/19 00:13:13;;;;;;;51.20;23.70;;;;;;;4.92;58.99;100279.99;106522;1272;22879;-59
2023/03/19 00:15:44;;;;;;;48.90;21.50;;;;;;;4.90;59.08;100284.34;106514;1269;22530;-58
2023/03/19 00:18:15;;;;;;;55.80;21.40;;;;;;;4.86;59.12;100283.33;106201;1269;322611;-59
2023/03/19 00:20:46;;;;;;;55.90;23.10;;;;;;;4.83;59.20;100281.92;106376;1274;24708;-57
2023/03/19 00:23:17;;;;;;;56.10;21.40;;;;;;;4.77;59.29;100283.98;106467;1274;22531;-59
2023/03/19 00:25:48;;;;;;;55.70;23.30;;;;;;;4.73;59.36;100283.00;106734;1276;25246;-58
2023/03/19 00:28:19;;;;;;;58.60;23.70;;;;;;;4.69;59.52;100285.48;107090;1276;22524;-59
2023/03/19 00:30:50;;;;;;;60.20;23.60;;;;;;;4.63;59.47;100293.33;106866;1272;24250;-59
2023/03/19 00:33:21;;;;;;;61.50;23.10;;;;;;;4.59;59.51;100296.58;106957;1262;22643;-59
2023/03/19 00:35:53;;;;;;;52.70;22.60;;;;;;;4.55;59.57;100296.77;107005;1253;24238;-59
2023/03/19 00:38:24;;;;;;;57.60;23.60;;;;;;;4.51;59.64;100288.21;107087;1258;22908;-59
2023/03/19 00:40:55;;;;;;;68.40;26.70;;;;;;;4.46;59.64;100289.92;106989;1272;25532;-58
2023/03/19 00:43:25;;;;;;;58.10;23.80;;;;;;;4.41;59.65;100290.15;107038;1272;22524;-58
2023/03/19 00:45:56;;;;;;;58.90;24.40;;;;;;;4.36;59.74;100296.50;107042;1276;24159;-60
2023/03/19 00:48:27;;;;;;;64.20;24.80;;;;;;;4.32;60.04;100298.91;106982;1268;22484;-64
2023/03/19 00:51:04;;;;;;;59.50;24.00;;;;;;;4.29;60.02;100297.02;107076;1276;22565;-59
2023/03/19 00:53:37;;;;;;;57.70;24.90;;;;;;;4.24;60.14;100294.70;107153;1276;22520;-59
2023/03/19 00:56:09;;;;;;;62.90;25.40;;;;;;;4.20;60.24;100294.02;107185;1276;25402;-58
2023/03/19 00:58:41;;;;;;;63.00;26.80;;;;;;;4.16;60.31;100288.98;107046;1275;25018;-59
2023/03/19 01:01:15;;;;;;;75.20;30.50;;;;;;;4.12;60.37;100285.36;107168;1276;22535;-57
2023/03/19 01:03:46;;;;;;;74.10;28.10;;;;;;;4.09;60.59;100284.17;107133;1258;22539;-57
2023/03/19 01:06:17;;;;;;;73.90;30.10;;;;;;;4.07;60.71;100284.16;106965;1276;22511;-58
2023/03/19 01:08:47;;;;;;;77.30;29.40;;;;;;;4.04;60.70;100282.50;107086;1264;23921;-58
2023/03/19 01:11:18;;;;;;;71.20;29.00;;;;;;;4.01;60.76;100287.41;107063;1271;22552;-59
2023/03/19 01:13:49;;;;;;;76.10;28.30;;;;;;;3.98;60.90;100282.34;107055;1275;25410;-59
2023/03/19 01:16:20;;;;;;;63.00;27.30;;;;;;;3.96;60.98;100278.69;107374;1253;22656;-58
2023/03/19 01:18:51;;;;;;;68.10;26.10;;;;;;;3.94;61.01;100276.91;107041;1274;22529;-58
2023/03/19 01:21:22;;;;;;;72.80;27.40;;;;;;;3.92;61.10;100267.73;107065;1276;24297;-56
2023/03/19 01:23:53;;;;;;;73.90;29.50;;;;;;;3.90;61.24;100268.00;107158;1263;23160;-58
2023/03/19 01:26:25;;;;;;;83.70;32.10;;;;;;;3.88;61.32;100267.20;107050;1262;22520;-57
2023/03/19 01:28:57;;;;;;;82.10;33.50;;;;;;;3.87;61.30;100276.07;107023;1273;24309;-56
2023/03/19 01:31:28;;;;;;;89.10;34.90;;;;;;;3.85;61.41;100277.30;107514;1269;24190;-59
2023/03/19 01:33:59;;;;;;;81.60;32.70;;;;;;;3.83;61.44;100278.45;107899;1275;22542;-59
2023/03/19 01:36:30;;;;;;;86.70;33.80;;;;;;;3.82;61.63;100273.20;107106;1269;22528;-58
2023/03/19 01:39:01;;;;;;;89.90;36.10;;;;;;;3.80;61.59;100274.27;107061;1270;24261;-57
2023/03/19 01:41:32;;;;;;;84.50;32.80;;;;;;;3.77;61.72;100273.07;107158;1276;22645;-58
2023/03/19 01:44:03;;;;;;;78.70;31.00;;;;;;;3.75;61.84;100270.45;106994;1275;24193;-59
2023/03/19 01:46:36;;;;;;;79.30;31.00;;;;;;;3.73;61.92;100267.28;106990;1276;22613;-58
2023/03/19 01:49:08;;;;;;;61.90;26.90;;;;;;;3.70;62.05;100270.34;107089;1276;22785;-58
2023/03/19 01:51:45;;;;;;;73.50;29.30;;;;;;;3.67;62.07;100274.43;107014;1276;23119;-60
2023/03/19 01:54:20;;;;;;;81.10;31.50;;;;;;;3.65;62.23;100271.33;107050;1276;22525;-56
2023/03/19 01:56:55;;;;;;;76.00;32.60;;;;;;;3.63;62.39;100273.66;107127;1276;22476;-58
2023/03/19 01:59:30;;;;;;;71.40;29.90;;;;;;;3.61;62.49;100273.47;107267;1273;24188;-59
2023/03/19 02:02:06;;;;;;;65.40;27.30;;;;;;;3.60;62.49;100276.96;107254;1276;22629;-58
2023/03/19 02:04:40;;;;;;;53.00;25.70;;;;;;;3.59;62.55;100277.55;107209;1275;24110;-58
2023/03/19 02:07:13;;;;;;;59.80;25.50;;;;;;;3.57;62.60;100274.52;107215;1273;22611;-58
2023/03/19 02:09:45;;;;;;;60.80;27.70;;;;;;;3.56;62.65;100275.48;107183;1270;22528;-58
2023/03/19 02:12:17;;;;;;;68.00;27.80;;;;;;;3.55;62.71;100275.92;107140;1275;24258;-57
2023/03/19 02:14:48;;;;;;;65.70;29.30;;;;;;;3.52;62.72;100276.54;107139;1276;22505;-57
2023/03/19 02:17:20;;;;;;;73.10;28.60;;;;;;;3.49;62.75;100279.05;106996;1274;25391;-59
2023/03/19 02:19:57;;;;;;;71.10;30.30;;;;;;;3.46;62.86;100279.44;107021;1274;23899;-57
2023/03/19 02:22:32;;;;;;;77.10;31.10;;;;;;;3.43;62.91;100276.27;107128;1270;22524;-59
2023/03/19 02:25:07;;;;;;;74.60;31.60;;;;;;;3.41;62.93;100277.66;107200;1276;25433;-58
2023/03/19 02:27:38;;;;;;;72.50;30.10;;;;;;;3.38;62.97;100280.26;107131;1273;25546;-58
2023/03/19 02:30:26;;;;;;;79.20;32.00;;;;;;;3.33;63.04;100282.27;107190;1272;25303;-59
2023/03/19 02:32:57;;;;;;;77.60;29.20;;;;;;;3.29;63.05;100289.22;107236;1268;22517;-59
2023/03/19 02:35:34;;;;;;;67.80;28.30;;;;;;;3.25;63.18;100286.85;107038;1262;25498;-57
2023/03/19 02:38:06;;;;;;;68.20;29.30;;;;;;;3.22;63.21;100281.95;107090;1265;25332;-58
2023/03/19 02:40:39;;;;;;;64.90;29.40;;;;;;;3.21;63.25;100283.31;107105;1269;23487;-58
2023/03/19 02:43:10;;;;;;;70.40;31.80;;;;;;;3.19;63.36;100281.88;107089;1276;22518;-57
2023/03/19 02:45:41;;;;;;;68.80;27.40;;;;;;;3.17;63.37;100282.48;107031;1276;22528;-57
2023/03/19 02:48:12;;;;;;;74.90;28.80;;;;;;;3.15;63.45;100285.35;107106;1269;25449;-59
2023/03/19 02:50:43;;;;;;;66.50;27.60;;;;;;;3.13;63.50;100282.94;107137;1276;25357;-57
2023/03/19 02:53:14;;;;;;;65.80;26.30;;;;;;;3.11;63.62;100284.42;107073;1273;24190;-58
2023/03/19 02:55:45;;;;;;;65.70;27.20;;;;;;;3.07;63.81;100286.25;107078;1274;22524;-58
2023/03/19 02:58:16;;;;;;;62.10;27.70;;;;;;;3.05;63.72;100283.92;107017;1276;23934;-58
2023/03/19 03:00:47;;;;;;;64.70;26.80;;;;;;;3.04;63.82;100282.53;107141;1276;22536;-57
2023/03/19 03:03:18;;;;;;;65.10;27.00;;;;;;;3.02;63.87;100286.32;107102;1262;22546;-58
2023/03/19 03:05:49;;;;;;;61.90;26.50;;;;;;;3.00;63.93;100282.98;107156;1276;22711;-58
2023/03/19 03:08:20;;;;;;;59.50;25.00;;;;;;;2.98;64.02;100283.42;107096;1276;23801;-58
2023/03/19 03:10:51;;;;;;;58.30;24.90;;;;;;;2.97;64.07;100288.90;107065;1265;22530;-58
2023/03/19 03:13:23;;;;;;;65.00;25.30;;;;;;;2.95;64.16;100294.45;107012;1276;25413;-58
2023/03/19 03:15:54;;;;;;;61.60;25.50;;;;;;;2.94;64.20;100288.40;106977;1273;22821;-57
2023/03/19 03:18:25;;;;;;;62.30;26.50;;;;;;;2.93;64.23;100284.89;106987;1262;22536;-57
2023/03/19 03:20:57;;;;;;;69.90;25.10;;;;;;;2.91;64.32;100283.19;107256;1275;25514;-58
2023/03/19 03:23:28;;;;;;;66.30;27.60;;;;;;;2.89;64.43;100285.52;107081;1276;22536;-58
2023/03/19 03:25:59;;;;;;;63.70;27.30;;;;;;;2.86;64.55;100284.23;107041;1270;24234;-59
2023/03/19 03:28:29;;;;;;;64.70;26.00;;;;;;;2.83;64.63;100286.42;107012;1273;25409;-57
2023/03/19 03:31:03;;;;;;;71.00;29.80;;;;;;;2.80;64.78;100294.52;107042;1265;22518;-57
2023/03/19 03:33:35;;;;;;;71.10;29.40;;;;;;;2.75;64.76;100296.52;107985;1273;23772;-60
2023/03/19 03:36:07;;;;;;;65.00;28.20;;;;;;;2.70;64.80;100295.84;107700;1265;24190;-58
2023/03/19 03:38:38;;;;;;;61.50;26.20;;;;;;;2.68;65.00;100293.97;107194;1276;22532;-57
2023/03/19 03:41:09;;;;;;;61.60;24.50;;;;;;;2.66;65.04;100292.29;107110;1275;24181;-58
2023/03/19 03:43:41;;;;;;;50.90;21.50;;;;;;;2.65;65.12;100299.02;107059;1275;25152;-57
2023/03/19 03:46:12;;;;;;;49.00;20.80;;;;;;;2.64;65.15;100296.27;107117;1276;26642;-58
2023/03/19 03:48:43;;;;;;;54.20;23.40;;;;;;;2.63;65.21;100299.11;106949;1274;25859;-58
2023/03/19 03:51:13;;;;;;;54.20;22.50;;;;;;;2.62;65.29;100299.46;107042;1276;22483;-58
2023/03/19 03:53:45;;;;;;;56.70;24.10;;;;;;;2.60;65.31;100303.52;107313;1273;23553;-59
2023/03/19 03:56:16;;;;;;;53.60;22.20;;;;;;;2.57;65.24;100305.15;107563;1273;24301;-58
2023/03/19 03:58:47;;;;;;;54.40;23.70;;;;;;;2.55;65.33;100301.88;107187;1274;24210;-58
2023/03/19 04:01:19;;;;;;;59.70;24.00;;;;;;;2.54;65.46;100299.77;107060;1276;22660;-58
2023/03/19 04:03:50;;;;;;;53.60;23.40;;;;;;;2.54;65.35;100295.77;107240;1262;25246;-58
2023/03/19 04:06:23;;;;;;;57.10;24.20;;;;;;;2.54;65.38;100290.65;107046;1276;22575;-58
2023/03/19 04:08:54;;;;;;;53.70;23.90;;;;;;;2.52;65.46;100292.42;107105;1276;22537;-59
2023/03/19 04:11:25;;;;;;;67.60;25.10;;;;;;;2.50;65.65;100295.84;106990;1276;24294;-59
2023/03/19 04:13:57;;;;;;;81.90;32.50;;;;;;;2.48;65.69;100300.91;107065;1264;22648;-59
2023/03/19 04:16:28;;;;;;;84.30;34.10;;;;;;;2.44;65.71;100299.80;107049;1262;22524;-59
2023/03/19 04:18:59;;;;;;;76.90;32.00;;;;;;;2.41;65.76;100300.72;107056;1275;22525;-56
2023/03/19 04:21:30;;;;;;;87.60;34.20;;;;;;;2.40;65.90;100300.90;106841;1262;25350;-59
2023/03/19 04:24:02;;;;;;;81.20;32.90;;;;;;;2.38;65.86;100301.25;107033;1276;22895;-57
2023/03/19 04:26:33;;;;;;;72.30;30.40;;;;;;;2.35;65.97;100299.02;107065;1266;22537;-58
2023/03/19 04:29:04;;;;;;;76.10;29.80;;;;;;;2.32;65.96;100294.20;106963;1276;22526;-58
2023/03/19 04:31:35;;;;;;;80.70;30.80;;;;;;;2.32;66.13;100289.34;107127;1273;25428;-57
2023/03/19 04:34:07;;;;;;;78.00;30.90;;;;;;;2.30;66.25;100290.94;107027;1264;24194;-59
2023/03/19 04:36:38;;;;;;;70.00;29.20;;;;;;;2.28;66.50;100295.70;107079;1276;22877;-56
2023/03/19 04:39:08;;;;;;;67.60;28.40;;;;;;;2.24;66.52;100297.50;107121;1263;22527;-58
2023/03/19 04:41:39;;;;;;;61.70;27.10;;;;;;;2.22;66.64;100294.94;107076;1269;22639;-59
2023/03/19 04:44:10;;;;;;;55.50;24.10;;;;;;;2.20;66.69;100290.95;107047;1270;22526;-58
2023/03/19 04:46:43;;;;;;;56.20;23.60;;;;;;;2.18;66.65;100291.37;106990;1270;26167;-55
2023/03/19 04:49:14;;;;;;;55.30;22.10;;;;;;;2.17;66.78;100289.05;107083;1267;25603;-59
2023/03/19 04:51:45;;;;;;;48.90;20.30;;;;;;;2.16;66.82;100287.10;106988;1276;22527;-59
2023/03/19 04:54:16;;;;;;;52.30;21.70;;;;;;;2.16;66.98;100287.48;106898;1254;22504;-58
2023/03/19 04:56:47;;;;;;;52.90;23.80;;;;;;;2.17;66.94;100289.84;106987;1276;24238;-58
2023/03/19 04:59:18;;;;;;;59.70;23.60;;;;;;;2.16;66.93;100290.02;106986;1276;26649;-58
2023/03/19 05:01:49;;;;;;;65.40;25.50;;;;;;;2.15;66.94;100291.21;106898;1262;22620;-58
2023/03/19 05:04:20;;;;;;;57.90;25.00;;;;;;;2.13;67.04;100287.23;106952;1265;22629;-58
2023/03/19 05:06:51;;;;;;;58.50;24.20;;;;;;;2.12;67.11;100281.83;106868;1271;24266;-59
2023/03/19 05:09:22;;;;;;;58.00;24.50;;;;;;;2.11;67.18;100284.11;106947;1269;22524;-55
2023/03/19 05:11:53;;;;;;;64.40;25.20;;;;;;;2.11;67.21;100284.91;106862;1276;22520;-56
2023/03/19 05:14:24;;;;;;;57.00;22.30;;;;;;;2.09;67.32;100287.31;106894;1270;26542;-59
2023/03/19 05:16:55;;;;;;;49.60;21.40;;;;;;;2.07;67.31;100287.19;107065;1276;22572;-55
2023/03/19 05:19:26;;;;;;;50.40;21.30;;;;;;;2.06;67.48;100291.61;106930;1276;24218;-58
2023/03/19 05:21:57;;;;;;;53.70;23.50;;;;;;;2.05;67.56;100293.52;107186;1275;25421;-57
2023/03/19 05:24:28;;;;;;;51.10;21.30;;;;;;;2.02;67.53;100298.85;106958;1276;22488;-58
2023/03/19 05:26:59;;;;;;;48.40;21.70;;;;;;;2.00;67.68;100300.28;106916;1276;26544;-57
2023/03/19 05:29:30;;;;;;;55.70;21.50;;;;;;;1.99;67.79;100297.55;106893;1275;24218;-59
2023/03/19 05:32:02;;;;;;;52.40;22.60;;;;;;;2.00;67.87;100300.76;106969;1265;23657;-59
2023/03/19 05:34:33;;;;;;;55.10;23.30;;;;;;;1.98;68.03;100298.67;107761;1270;22527;-58
2023/03/19 05:37:03;;;;;;;50.90;19.70;;;;;;;1.98;67.99;100300.89;107712;1270;22573;-58
2023/03/19 05:39:35;;;;;;;56.80;24.50;;;;;;;1.98;68.06;100301.20;106888;1276;22709;-59
2023/03/19 05:42:07;;;;;;;51.20;20.10;;;;;;;1.98;68.04;100304.02;106975;1276;22596;-60
2023/03/19 05:44:38;;;;;;;52.00;20.90;;;;;;;1.98;68.23;100307.48;106961;1266;23704;-60
2023/03/19 05:47:11;;;;;;;51.00;20.70;;;;;;;1.99;68.31;100308.80;107088;1275;22527;-58
2023/03/19 05:49:41;;;;;;;47.10;21.00;;;;;;;1.99;68.38;100309.20;106954;1275;26444;-58
2023/03/19 05:52:13;;;;;;;51.60;19.40;;;;;;;1.99;68.33;100311.93;107043;1276;25420;-56
2023/03/19 05:54:43;;;;;;;45.30;20.50;;;;;;;2.01;68.43;100304.75;106877;1275;25760;-58
2023/03/19 05:57:14;;;;;;;48.60;20.80;;;;;;;2.03;68.59;100299.53;106812;1264;22514;-59
2023/03/19 05:59:45;;;;;;;55.80;23.00;;;;;;;2.05;68.70;100301.08;106880;1269;25409;-59
2023/03/19 06:02:16;;;;;;;156.40;53.90;;;;;;;2.06;68.72;100303.57;106874;1276;22731;-58
2023/03/19 06:04:47;;;;;;;257.10;77.50;;;;;;;2.09;69.06;100310.13;106943;1271;25554;-60
2023/03/19 06:07:18;;;;;;;224.00;69.70;;;;;;;2.11;68.94;100317.94;106930;1276;25481;-58
2023/03/19 06:09:50;;;;;;;187.30;63.20;;;;;;;2.15;69.18;100318.91;107055;1276;22518;-60
2023/03/19 06:12:22;;;;;;;164.80;57.20;;;;;;;2.19;69.24;100320.48;106984;1276;22567;-59
2023/03/19 06:14:53;;;;;;;134.90;46.00;;;;;;;2.25;69.48;100318.80;107016;1275;24213;-58
2023/03/19 06:17:24;;;;;;;154.40;48.30;;;;;;;2.33;69.66;100316.54;107008;1275;24358;-58
2023/03/19 06:19:55;;;;;;;133.30;45.80;;;;;;;2.42;69.83;100312.20;106914;1270;24191;-58
2023/03/19 06:22:27;;;;;;;116.00;38.30;;;;;;;2.51;69.94;100308.25;106830;1265;25320;-58
2023/03/19 06:24:57;;;;;;;84.60;28.70;;;;;;;2.61;70.00;100311.05;107046;1267;22542;-58
2023/03/19 06:27:28;;;;;;;60.60;24.00;;;;;;;2.72;69.98;100313.28;106952;1269;22462;-57
2023/03/19 06:29:59;;;;;;;66.80;23.40;;;;;;;2.83;70.09;100312.73;106990;1275;22535;-58
2023/03/19 06:32:30;;;;;;;50.20;19.90;;;;;;;2.95;70.18;100318.95;106856;1271;22630;-59
2023/03/19 06:35:02;;;;;;;45.10;17.50;;;;;;;3.08;70.20;100324.11;106883;1253;22648;-59
2023/03/19 06:37:33;;;;;;;41.70;18.00;;;;;;;3.21;70.31;100330.05;107012;1273;24302;-58
2023/03/19 06:40:05;;;;;;;38.40;15.30;;;;;;;3.36;70.51;100329.20;106985;1275;22643;-59
2023/03/19 06:42:36;;;;;;;41.10;16.60;;;;;;;3.51;70.61;100326.95;107090;1276;25434;-60
2023/03/19 06:45:09;;;;;;;36.70;15.20;;;;;;;3.63;70.38;100323.66;106955;1273;22543;-61
2023/03/19 06:47:42;;;;;;;35.10;15.20;;;;;;;3.75;70.22;100326.52;107162;1275;25495;-61
2023/03/19 06:50:15;;;;;;;39.20;16.70;;;;;;;3.85;70.28;100329.52;107073;1266;22517;-60
2023/03/19 06:52:46;;;;;;;35.10;15.60;;;;;;;3.96;70.36;100332.11;107011;1265;22640;-58
2023/03/19 06:55:19;;;;;;;32.80;16.00;;;;;;;4.06;70.59;100335.95;106980;1275;22521;-59
2023/03/19 06:57:52;;;;;;;35.40;15.70;;;;;;;4.17;70.62;100336.16;107114;1270;22524;-58
2023/03/19 07:00:24;;;;;;;36.60;15.20;;;;;;;4.28;70.62;100334.48;107170;1270;22522;-60
2023/03/19 07:02:55;;;;;;;34.10;14.10;;;;;;;4.38;70.65;100335.63;107250;1275;23005;-58
2023/03/19 07:05:27;;;;;;;30.00;12.80;;;;;;;4.48;70.63;100336.61;107060;1273;24228;-58
2023/03/19 07:07:58;;;;;;;35.00;13.50;;;;;;;4.59;70.55;100337.20;106938;1275;22555;-57
2023/03/19 07:10:30;;;;;;;35.60;13.80;;;;;;;4.69;70.49;100340.63;107058;1275;22535;-60
2023/03/19 07:13:00;;;;;;;31.30;12.90;;;;;;;4.81;70.49;100341.08;106961;1275;24190;-60
2023/03/19 07:15:31;;;;;;;31.30;14.40;;;;;;;4.91;70.32;100341.30;106964;1253;24292;-60
2023/03/19 07:18:03;;;;;;;35.90;13.40;;;;;;;4.99;70.08;100332.67;107053;1276;22614;-58
2023/03/19 07:20:34;;;;;;;32.10;13.70;;;;;;;5.07;70.04;100340.90;106993;1276;22628;-59
2023/03/19 07:23:05;;;;;;;34.40;13.70;;;;;;;5.16;70.04;100347.30;106920;1276;22475;-61
2023/03/19 07:25:37;;;;;;;33.20;13.30;;;;;;;5.24;70.01;100343.64;107055;1275;23278;-59
2023/03/19 07:28:08;;;;;;;28.80;13.20;;;;;;;5.34;70.18;100343.59;107050;1274;22757;-60
2023/03/19 07:30:39;;;;;;;29.50;13.50;;;;;;;5.48;70.53;100341.73;106941;1276;22524;-58
2023/03/19 07:33:10;;;;;;;28.80;14.20;;;;;;;5.62;70.38;100345.73;107334;1276;22485;-60
2023/03/19 07:35:41;;;;;;;34.70;14.10;;;;;;;5.74;70.20;100342.98;107904;1260;22529;-57
2023/03/19 07:38:13;;;;;;;29.80;13.00;;;;;;;5.85;70.34;100339.41;106988;1264;22622;-60
2023/03/19 07:40:45;;;;;;;31.30;12.80;;;;;;;5.99;70.30;100344.29;106892;1269;22561;-60
2023/03/19 07:43:15;;;;;;;27.70;12.20;;;;;;;6.12;70.26;100351.58;106929;1263;25304;-58
2023/03/19 07:45:47;;;;;;;28.50;11.60;;;;;;;6.26;70.09;100348.98;107023;1270;25190;-60
2023/03/19 07:48:18;;;;;;;26.20;11.60;;;;;;;6.40;70.11;100352.07;106984;1275;22532;-59
2023/03/19 07:50:51;;;;;;;30.40;11.00;;;;;;;6.59;69.78;100349.69;107075;1275;22523;-58
2023/03/19 07:53:23;;;;;;;26.90;10.40;;;;;;;6.80;69.11;100358.11;107124;1267;22563;-57
2023/03/19 07:55:55;;;;;;;24.40;9.60;;;;;;;6.99;68.89;100358.79;107078;1276;22503;-60
2023/03/19 07:58:26;;;;;;;24.20;10.10;;;;;;;7.17;68.63;100362.96;106950;1264;22569;-61
2023/03/19 08:00:57;;;;;;;28.20;10.40;;;;;;;7.38;68.58;100357.71;107015;1264;22607;-59
2023/03/19 08:03:28;;;;;;;29.60;11.40;;;;;;;7.57;68.29;100352.51;107035;1261;22666;-59
2023/03/19 08:06:00;;;;;;;25.20;9.60;;;;;;;7.74;67.75;100349.49;106983;1276;22657;-59
2023/03/19 08:08:33;;;;;;;26.40;9.90;;;;;;;7.90;67.49;100349.96;106987;1270;22526;-61
2023/03/19 08:11:05;;;;;;;24.90;10.30;;;;;;;8.01;67.44;100350.45;106945;1274;24225;-60
2023/03/19 08:13:37;;;;;;;28.20;11.30;;;;;;;8.07;67.05;100349.58;107184;1263;25902;-57
2023/03/19 08:16:09;;;;;;;26.50;9.70;;;;;;;8.14;67.05;100355.95;106718;1270;23215;-61
2023/03/19 08:18:39;;;;;;;22.20;8.60;;;;;;;8.24;66.93;100354.48;106688;1271;23153;-61
2023/03/19 08:21:11;;;;;;;22.20;7.90;;;;;;;8.35;66.83;100351.86;106747;1270;23152;-60
2023/03/19 08:23:42;;;;;;;24.30;8.90;;;;;;;8.49;66.15;100343.08;106797;1276;22522;-60
2023/03/19 08:26:13;;;;;;;20.90;7.90;;;;;;;8.65;66.15;100340.02;106725;1267;22560;-62
2023/03/19 08:28:44;;;;;;;22.50;7.70;;;;;;;8.79;66.15;100334.21;106682;1273;25246;-61
2023/03/19 08:31:15;;;;;;;22.50;8.30;;;;;;;8.96;65.98;100336.38;106545;1271;23915;-59
2023/03/19 08:33:47;;;;;;;22.70;7.70;;;;;;;9.11;65.36;100340.03;106671;1276;24053;-62
2023/03/19 08:36:18;;;;;;;22.90;9.30;;;;;;;9.24;65.25;100346.62;106691;1264;25273;-62
2023/03/19 08:38:53;;;;;;;24.20;8.30;;;;;;;9.33;65.22;100347.23;106682;1276;24227;-62
2023/03/19 08:41:25;;;;;;;19.70;7.80;;;;;;;9.46;65.25;100341.36;106580;1264;22533;-62
2023/03/19 08:43:55;;;;;;;23.30;8.60;;;;;;;9.60;64.79;100338.62;106776;1273;24345;-62
2023/03/19 08:46:28;;;;;;;20.30;7.40;;;;;;;9.73;64.75;100333.80;106605;1273;25515;-61
2023/03/19 08:48:59;;;;;;;21.70;8.80;;;;;;;9.87;64.76;100332.42;106728;1264;22752;-62
2023/03/19 08:51:30;;;;;;;22.80;8.30;;;;;;;10.06;64.56;100339.45;106684;1269;22533;-62
2023/03/19 08:54:01;;;;;;;28.10;11.30;;;;;;;10.23;64.48;100342.35;106708;1276;22524;-62
2023/03/19 08:56:32;;;;;;;26.00;9.50;;;;;;;10.38;64.22;100339.27;106676;1274;25503;-62
2023/03/19 08:59:04;;;;;;;22.50;8.30;;;;;;;10.52;63.73;100346.01;106552;1270;22527;-62
2023/03/19 09:01:36;;;;;;;26.00;8.90;;;;;;;10.63;63.50;100342.38;106583;1270;22520;-64
2023/03/19 09:04:06;;;;;;;22.00;8.90;;;;;;;10.73;63.18;100341.82;106882;1264;23027;-62
2023/03/19 09:06:38;;;;;;;22.20;8.90;;;;;;;10.83;63.02;100339.98;106641;1276;22534;-62
2023/03/19 09:09:10;;;;;;;22.70;9.30;;;;;;;10.94;62.65;100342.33;106714;1273;26308;-61
2023/03/19 09:11:41;;;;;;;21.70;8.10;;;;;;;11.01;62.61;100334.79;106784;1270;22539;-61
2023/03/19 09:14:12;;;;;;;21.00;8.20;;;;;;;11.13;62.64;100332.98;106683;1276;22517;-60
2023/03/19 09:16:44;;;;;;;28.30;9.10;;;;;;;11.24;62.13;100335.38;106782;1264;22596;-61
2023/03/19 09:19:16;;;;;;;19.80;8.10;;;;;;;11.39;61.71;100334.52;106522;1276;25529;-62
2023/03/19 09:21:47;;;;;;;22.60;8.00;;;;;;;11.52;61.38;100335.48;106678;1274;22555;-62
2023/03/19 09:24:21;;;;;;;20.00;8.10;;;;;;;11.61;60.96;100333.30;106688;1264;22529;-58
2023/03/19 09:26:53;;;;;;;20.70;7.30;;;;;;;11.69;60.58;100330.77;106415;1269;25180;-65
2023/03/19 09:29:24;;;;;;;18.80;7.20;;;;;;;11.78;60.16;100320.63;106567;1269;22654;-64
2023/03/19 09:31:55;;;;;;;22.00;8.10;;;;;;;11.87;60.00;100312.33;106797;1273;24212;-60
2023/03/19 09:34:26;;;;;;;21.40;7.70;;;;;;;11.96;59.83;100315.98;106803;1254;22522;-58
2023/03/19 09:36:57;;;;;;;19.40;7.60;;;;;;;12.06;59.77;100322.73;106613;1275;22521;-56
2023/03/19 09:39:29;;;;;;;18.20;7.30;;;;;;;12.17;59.86;100321.71;106567;1275;23120;-58
2023/03/19 09:42:13;;;;;;;20.90;7.30;;;;;;;12.26;59.55;100319.19;106601;1273;22573;-58
2023/03/19 09:44:46;;;;;;;18.40;7.30;;;;;;;12.33;59.38;100323.66;106752;1274;22549;-58
2023/03/19 09:47:30;;;;;;;19.40;7.80;;;;;;;12.39;59.20;100323.23;106638;1270;22672;-67
2023/03/19 09:50:03;;;;;;;17.10;7.30;;;;;;;12.45;58.84;100321.58;106455;1257;25345;-58
2023/03/19 09:52:45;;;;;;;18.20;7.30;;;;;;;12.52;58.70;100319.06;106605;1260;24212;-60
2023/03/19 09:55:32;;;;;;;19.00;7.90;;;;;;;12.62;58.71;100312.62;106661;1264;25924;-59
2023/03/19 09:58:11;;;;;;;19.70;7.30;;;;;;;12.77;58.40;100307.03;107162;1271;25424;-58
2023/03/19 10:00:42;;;;;;;20.00;6.70;;;;;;;12.95;58.00;100304.63;106546;1270;25465;-60
2023/03/19 10:03:32;;;;;;;18.20;6.70;;;;;;;13.11;57.45;100305.90;106572;1263;22887;-58
2023/03/19 10:06:25;;;;;;;17.50;6.60;;;;;;;13.23;57.40;100305.14;107012;1254;22531;-61
2023/03/19 10:09:32;;;;;;;17.80;6.40;;;;;;;13.35;56.67;100302.54;106863;1275;22602;-61
2023/03/19 10:12:20;;;;;;;19.50;6.80;;;;;;;13.47;56.60;100296.38;106451;1270;22998;-60
2023/03/19 10:15:11;;;;;;;16.00;8.60;;;;;;;13.57;56.31;100293.86;106664;1270;22524;-65
2023/03/19 10:17:49;;;;;;;17.00;6.60;;;;;;;13.62;55.88;100286.39;106422;1270;22672;-60
2023/03/19 10:20:28;;;;;;;17.00;6.10;;;;;;;13.70;55.51;100278.34;106389;1260;22527;-60
2023/03/19 10:23:12;;;;;;;15.60;5.70;;;;;;;13.76;55.09;100276.39;106490;1264;22527;-59
2023/03/19 10:25:45;;;;;;;16.70;6.00;;;;;;;13.84;54.47;100284.10;106661;1261;24295;-59
2023/03/19 10:28:18;;;;;;;17.60;5.70;;;;;;;13.91;54.54;100283.28;106618;1261;22526;-58
2023/03/19 10:30:55;;;;;;;17.80;5.40;;;;;;;14.00;53.59;100278.68;106751;1269;24090;-61
2023/03/19 10:33:34;;;;;;;14.20;4.30;;;;;;;14.04;52.90;100277.89;106679;1275;24386;-61
2023/03/19 10:36:10;;;;;;;13.90;5.20;;;;;;;14.06;52.43;100275.66;106786;1264;23377;-61
2023/03/19 10:38:43;;;;;;;16.50;5.40;;;;;;;14.08;52.43;100276.33;109130;1269;25491;-62
2023/03/19 10:41:27;;;;;;;14.10;4.90;;;;;;;14.10;52.14;100281.69;106571;1271;24296;-60
2023/03/19 10:44:02;;;;;;;19.10;5.80;;;;;;;14.12;52.17;100278.60;106667;1269;22533;-62
2023/03/19 10:46:40;;;;;;;15.50;5.60;;;;;;;14.18;52.29;100274.08;106642;1274;24232;-59
2023/03/19 10:49:15;;;;;;;18.50;6.00;;;;;;;14.26;52.15;100275.56;106691;1275;23807;-60
2023/03/19 10:51:48;;;;;;;16.00;6.10;;;;;;;14.36;52.17;100270.83;106658;1253;22519;-62
2023/03/19 10:54:25;;;;;;;16.20;6.20;;;;;;;14.42;51.92;100265.12;106663;1276;25260;-59
2023/03/19 10:57:00;;;;;;;16.20;6.00;;;;;;;14.45;51.46;100260.55;106686;1276;22636;-59
2023/03/19 10:59:38;;;;;;;18.20;6.10;;;;;;;14.48;51.49;100258.83;106957;1262;24193;-60
2023/03/19 11:02:19;;;;;;;18.00;6.30;;;;;;;14.53;51.32;100256.17;106805;1276;23019;-60
2023/03/19 11:05:11;;;;;;;17.20;6.00;;;;;;;14.59;51.11;100258.81;106563;1264;22633;-60
2023/03/19 11:07:42;;;;;;;19.70;7.00;;;;;;;14.66;51.25;100253.41;106559;1276;23035;-61
2023/03/19 11:10:16;;;;;;;16.20;5.80;;;;;;;14.72;50.91;100248.98;106698;1258;24328;-60
2023/03/19 11:12:54;;;;;;;16.30;5.60;;;;;;;14.79;50.61;100250.94;106558;1271;22569;-60
2023/03/19 11:15:32;;;;;;;17.20;6.20;;;;;;;14.82;50.16;100252.38;106528;1270;22739;-61
2023/03/19 11:18:15;;;;;;;15.00;5.50;;;;;;;14.86;50.33;100253.30;106601;1276;22532;-63
2023/03/19 11:20:55;;;;;;;16.10;6.70;;;;;;;14.89;50.05;100245.89;106570;1276;22778;-61
2023/03/19 11:23:30;;;;;;;16.50;6.80;;;;;;;14.92;49.76;100243.09;106833;1269;22647;-61
2023/03/19 11:26:02;;;;;;;16.50;6.30;;;;;;;14.95;49.57;100239.67;106558;1261;22646;-60
2023/03/19 11:28:36;;;;;;;14.60;5.30;;;;;;;14.97;49.59;100244.38;106792;1270;22638;-61
2023/03/19 11:31:15;;;;;;;16.70;5.40;;;;;;;14.99;49.15;100244.67;107081;1276;22525;-61
2023/03/19 11:34:04;;;;;;;16.80;5.70;;;;;;;15.00;49.19;100240.80;106570;1266;22527;-62